Time;durP1;ratioP1;P1;durP2;ratioP2;P2;SDS_P1;SDS_P2;PMS_P1;PMS_P2;Temp;Humidity;BMP_temperature;BMP_pressure;BME280_temperature;BME280_humidity;BME280_pressure;Samples;Min_cycle;Max_cycle;Signal;HPM_P1;HPM_P2
2023/07/05 00:01:56;;;;;;;5.82;3.42;;;22.90;69.70;;;;;;4995306;28;20027;-69
2023/07/05 00:04:22;;;;;;;5.78;3.55;;;22.90;69.70;;;;;;4995452;28;20033;-68
2023/07/05 00:06:53;;;;;;;5.85;3.20;;;22.90;69.80;;;;;;4995480;28;20026;-67
2023/07/05 00:09:19;;;;;;;5.63;3.10;;;22.90;69.80;;;;;;4996909;28;20034;-68
2023/07/05 00:11:46;;;;;;;5.72;3.38;;;22.90;69.90;;;;;;4998950;28;20041;-68
2023/07/05 00:14:12;;;;;;;4.32;2.60;;;22.90;69.70;;;;;;4998796;28;20036;-68
2023/07/05 00:16:38;;;;;;;4.65;2.78;;;22.90;69.60;;;;;;4998638;28;20077;-68
2023/07/05 00:19:07;;;;;;;3.40;2.50;;;22.90;69.40;;;;;;4998619;28;20030;-68
2023/07/05 00:21:50;;;;;;;4.28;2.50;;;22.90;69.20;;;;;;5016842;28;20058;-67
2023/07/05 00:24:16;;;;;;;3.45;2.55;;;22.90;69.00;;;;;;5016539;28;20422;-70
2023/07/05 00:26:43;;;;;;;3.47;2.47;;;22.90;68.80;;;;;;5016552;28;20359;-68
2023/07/05 00:29:09;;;;;;;4.53;2.22;;;22.90;68.60;;;;;;5016255;28;20026;-68
2023/07/05 00:31:34;;;;;;;6.72;2.80;;;22.90;68.50;;;;;;5016675;28;20056;-68
2023/07/05 00:34:00;;;;;;;4.10;2.60;;;22.90;68.30;;;;;;5015805;28;20593;-68
2023/07/05 00:36:26;;;;;;;3.90;2.60;;;23.00;68.20;;;;;;5016236;28;20382;-69
2023/07/05 00:38:53;;;;;;;3.38;2.50;;;22.90;67.80;;;;;;5016105;28;20029;-69
2023/07/05 00:41:20;;;;;;;4.97;2.40;;;22.90;67.50;;;;;;5016597;28;20110;-67
2023/07/05 00:43:49;;;;;;;5.68;2.30;;;22.90;67.20;;;;;;5015897;28;20057;-68
2023/07/05 00:46:21;;;;;;;4.93;2.65;;;22.90;67.00;;;;;;4999533;28;20034;-69
2023/07/05 00:49:04;;;;;;;3.50;2.60;;;22.90;66.90;;;;;;5016256;28;20041;-69
2023/07/05 00:51:40;;;;;;;3.50;2.40;;;22.80;66.90;;;;;;5016468;28;20104;-68
2023/07/05 00:54:07;;;;;;;2.95;2.20;;;22.80;67.00;;;;;;4998016;28;20068;-68
2023/07/05 00:56:50;;;;;;;4.82;2.50;;;22.70;67.10;;;;;;4997919;28;20105;-68
2023/07/05 00:59:17;;;;;;;3.10;2.38;;;22.70;67.20;;;;;;4997272;28;20034;-69
2023/07/05 01:01:44;;;;;;;2.72;2.15;;;22.70;67.20;;;;;;4996878;28;20077;-69
2023/07/05 01:04:11;;;;;;;2.65;2.38;;;22.60;66.90;;;;;;4997983;28;20069;-68
2023/07/05 01:06:39;;;;;;;4.22;2.10;;;22.60;66.30;;;;;;4997997;28;20035;-68
2023/07/05 01:09:06;;;;;;;4.38;1.95;;;22.60;65.60;;;;;;4997913;28;20058;-68
2023/07/05 01:11:49;;;;;;;3.78;2.50;;;22.60;65.30;;;;;;4997889;28;20065;-68
2023/07/05 01:14:40;;;;;;;4.82;2.40;;;22.50;65.20;;;;;;4997644;28;20463;-68
2023/07/05 01:17:14;;;;;;;4.53;2.42;;;22.50;64.40;;;;;;4997409;28;20444;-68
2023/07/05 01:19:55;;;;;;;5.50;2.55;;;22.50;64.50;;;;;;4998027;28;20026;-68
2023/07/05 01:22:45;;;;;;;4.30;2.47;;;22.50;64.70;;;;;;4996906;28;20420;-68
2023/07/05 01:25:19;;;;;;;5.05;2.83;;;22.50;64.60;;;;;;4997884;28;20089;-69
2023/07/05 01:28:05;;;;;;;6.72;2.90;;;22.50;64.80;;;;;;4997321;28;20034;-68
2023/07/05 01:30:50;;;;;;;5.45;2.95;;;22.50;65.10;;;;;;4997562;28;20019;-69
2023/07/05 01:33:24;;;;;;;6.18;3.05;;;22.40;65.40;;;;;;4997310;28;20416;-68
2023/07/05 01:35:54;;;;;;;5.45;3.17;;;22.40;65.50;;;;;;4997080;28;20053;-69
2023/07/05 01:38:20;;;;;;;4.72;2.95;;;22.30;65.70;;;;;;4997175;28;20023;-69
2023/07/05 01:40:54;;;;;;;4.35;2.75;;;22.20;65.60;;;;;;4997351;28;20015;-69
2023/07/05 01:43:21;;;;;;;;;;;22.30;65.70;;;;;;4997951;28;20420;-69
2023/07/05 01:46:18;;;;;;;5.07;2.70;;;22.20;65.20;;;;;;4997013;28;19905;-69
2023/07/05 01:49:09;;;;;;;3.05;2.40;;;22.10;65.40;;;;;;4997260;28;20563;-69
2023/07/05 01:51:51;;;;;;;6.60;2.72;;;22.10;65.50;;;;;;4996887;28;20031;-69
2023/07/05 01:54:40;;;;;;;4.80;2.67;;;22.10;65.70;;;;;;4997284;28;20432;-69
2023/07/05 01:57:12;;;;;;;5.47;2.80;;;22.00;66.00;;;;;;4996782;28;20478;-69
2023/07/05 01:59:57;;;;;;;4.25;2.65;;;22.00;66.00;;;;;;4995767;28;20078;-67
2023/07/05 02:02:29;;;;;;;4.75;2.78;;;21.90;66.20;;;;;;4995704;28;20089;-67
2023/07/05 02:04:57;;;;;;;2.92;2.30;;;21.90;66.40;;;;;;4995663;28;20456;-68
2023/07/05 02:07:29;;;;;;;5.20;2.58;;;21.90;66.60;;;;;;4996816;28;20022;-68
2023/07/05 02:09:58;;;;;;;3.58;2.17;;;21.90;66.70;;;;;;4996864;28;20022;-69
2023/07/05 02:12:25;;;;;;;2.85;2.08;;;21.80;66.70;;;;;;4996733;28;20466;-67
2023/07/05 02:14:52;;;;;;;4.82;2.60;;;21.80;66.70;;;;;;4996395;28;20118;-68
2023/07/05 02:17:19;;;;;;;4.47;2.47;;;21.80;66.70;;;;;;4996441;28;20036;-68
2023/07/05 02:19:45;;;;;;;4.70;2.30;;;21.70;66.70;;;;;;4996659;28;20037;-68
2023/07/05 02:22:11;;;;;;;4.47;2.13;;;21.70;66.80;;;;;;4996345;28;20101;-69
2023/07/05 02:24:37;;;;;;;3.35;2.10;;;21.70;66.90;;;;;;4996295;28;20101;-69
2023/07/05 02:27:04;;;;;;;4.93;2.50;;;21.70;67.00;;;;;;4996808;28;20026;-69
2023/07/05 02:29:30;;;;;;;3.70;2.50;;;21.60;67.10;;;;;;4996205;28;20084;-69
2023/07/05 02:31:59;;;;;;;2.97;2.10;;;21.70;67.10;;;;;;4996398;28;20064;-70
2023/07/05 02:34:26;;;;;;;4.07;2.00;;;21.70;66.80;;;;;;4995790;28;20046;-69
2023/07/05 02:36:52;;;;;;;3.88;1.80;;;21.70;66.60;;;;;;4996132;28;20041;-69
2023/07/05 02:39:18;;;;;;;2.92;1.90;;;21.60;66.30;;;;;;4996657;28;20026;-68
2023/07/05 02:41:44;;;;;;;3.92;1.50;;;21.70;66.10;;;;;;4996083;28;20026;-69
2023/07/05 02:44:10;;;;;;;3.72;1.77;;;21.70;65.80;;;;;;4996170;28;20057;-69
2023/07/05 02:46:36;;;;;;;3.05;1.73;;;21.70;65.70;;;;;;4996001;28;20045;-69
2023/07/05 02:49:03;;;;;;;2.60;1.60;;;21.70;65.50;;;;;;4995952;28;20026;-69
2023/07/05 02:51:32;;;;;;;3.70;1.55;;;21.70;65.50;;;;;;4996444;28;20026;-68
2023/07/05 02:53:58;;;;;;;7.80;3.05;;;21.70;65.30;;;;;;4995700;28;20034;-68
2023/07/05 02:56:25;;;;;;;4.90;2.05;;;21.70;65.90;;;;;;4995936;28;20455;-68
2023/07/05 02:58:50;;;;;;;4.00;2.13;;;21.70;66.00;;;;;;4996146;28;20093;-69
2023/07/05 03:01:17;;;;;;;2.80;2.10;;;21.60;66.40;;;;;;4995841;28;20351;-68
2023/07/05 03:03:43;;;;;;;4.78;2.13;;;21.60;66.50;;;;;;4996029;28;20029;-68
2023/07/05 03:06:09;;;;;;;4.03;2.40;;;21.60;66.90;;;;;;4995830;28;20030;-67
2023/07/05 03:08:36;;;;;;;3.25;1.90;;;21.50;67.30;;;;;;4996014;28;20027;-67
2023/07/05 03:11:01;;;;;;;3.10;2.38;;;21.50;67.10;;;;;;4996253;28;20352;-67
2023/07/05 03:13:30;;;;;;;3.15;2.25;;;21.40;67.50;;;;;;4995543;28;20033;-68
2023/07/05 03:15:57;;;;;;;4.15;2.47;;;21.40;67.70;;;;;;4995693;28;20056;-68
2023/07/05 03:18:24;;;;;;;3.47;2.30;;;21.30;68.10;;;;;;4995986;28;20023;-68
2023/07/05 03:20:50;;;;;;;3.92;2.40;;;21.30;68.20;;;;;;4995632;28;20459;-68
2023/07/05 03:23:16;;;;;;;3.55;2.15;;;21.20;67.70;;;;;;4996133;28;20026;-67
2023/07/05 03:25:59;;;;;;;3.13;2.10;;;21.20;67.10;;;;;;4995595;28;20143;-68
2023/07/05 03:28:29;;;;;;;2.13;1.92;;;21.20;66.90;;;;;;4996137;28;20030;-68
2023/07/05 03:31:11;;;;;;;2.60;1.92;;;21.20;67.00;;;;;;4996055;28;20022;-69
2023/07/05 03:33:37;;;;;;;2.42;2.00;;;21.30;67.10;;;;;;4995556;28;20026;-68
2023/07/05 03:36:06;;;;;;;2.92;2.05;;;21.20;67.00;;;;;;4995511;28;20361;-68
2023/07/05 03:38:34;;;;;;;2.47;1.90;;;21.20;66.80;;;;;;4995976;28;20105;-68
2023/07/05 03:41:14;;;;;;;2.65;1.98;;;21.20;66.80;;;;;;4995720;28;20026;-69
2023/07/05 03:43:41;;;;;;;3.38;1.98;;;21.20;66.90;;;;;;4996047;28;20027;-68
2023/07/05 03:46:10;;;;;;;3.35;2.42;;;21.20;67.20;;;;;;4999216;28;20061;-68
2023/07/05 03:48:38;;;;;;;4.25;2.30;;;21.20;67.50;;;;;;4999137;28;20054;-69
2023/07/05 03:51:05;;;;;;;5.25;2.20;;;21.20;67.80;;;;;;4999103;28;20031;-68
2023/07/05 03:53:33;;;;;;;4.05;2.50;;;21.10;68.00;;;;;;4999340;28;20030;-68
2023/07/05 03:56:06;;;;;;;3.55;2.20;;;21.00;68.30;;;;;;4999255;28;20315;-68
2023/07/05 03:58:32;;;;;;;4.93;2.17;;;21.00;68.80;;;;;;4999306;28;20022;-68
2023/07/05 04:01:14;;;;;;;3.35;2.30;;;21.00;69.00;;;;;;4998992;28;20027;-68
2023/07/05 04:03:44;;;;;;;5.13;2.40;;;20.90;69.30;;;;;;4998844;28;20113;-68
2023/07/05 04:06:11;;;;;;;4.78;2.40;;;20.90;69.50;;;;;;4998884;28;20022;-68
2023/07/05 04:08:38;;;;;;;4.03;2.67;;;21.00;69.80;;;;;;4997853;28;20046;-68
2023/07/05 04:11:04;;;;;;;7.72;2.90;;;21.00;70.20;;;;;;4998810;28;20034;-68
2023/07/05 04:13:30;;;;;;;4.63;2.55;;;21.10;70.50;;;;;;4998573;28;20034;-68
2023/07/05 04:16:00;;;;;;;7.45;3.22;;;20.90;70.50;;;;;;4998707;28;20097;-68
2023/07/05 04:18:28;;;;;;;7.35;2.78;;;20.90;70.70;;;;;;4998621;28;20042;-68
2023/07/05 04:20:55;;;;;;;4.35;2.50;;;20.80;71.00;;;;;;4998873;28;20097;-68
2023/07/05 04:23:21;;;;;;;7.90;3.00;;;20.60;71.60;;;;;;4998485;28;20515;-69
2023/07/05 04:25:46;;;;;;;3.97;2.70;;;20.60;71.80;;;;;;4998467;28;20105;-68
2023/07/05 04:28:12;;;;;;;4.50;2.53;;;20.50;72.00;;;;;;4998707;28;20037;-68
2023/07/05 04:30:38;;;;;;;4.22;2.60;;;20.40;72.20;;;;;;4998359;28;20023;-69
2023/07/05 04:33:04;;;;;;;3.60;2.60;;;20.40;72.60;;;;;;4998289;28;20068;-69
2023/07/05 04:35:30;;;;;;;6.30;3.10;;;20.30;72.50;;;;;;4997270;28;20066;-68
2023/07/05 04:37:56;;;;;;;4.25;2.83;;;20.20;72.90;;;;;;4998508;28;20089;-69
2023/07/05 04:40:22;;;;;;;4.60;2.80;;;20.20;73.40;;;;;;4998513;28;20042;-69
2023/07/05 04:42:48;;;;;;;8.13;3.60;;;20.10;73.00;;;;;;4998471;28;20039;-69
2023/07/05 04:45:16;;;;;;;5.32;3.20;;;20.00;73.80;;;;;;4998193;28;20513;-68
2023/07/05 04:47:42;;;;;;;7.82;3.10;;;19.90;74.00;;;;;;4998642;28;20026;-68
2023/07/05 04:50:08;;;;;;;7.53;3.97;;;19.70;74.40;;;;;;4998321;28;20076;-66
2023/07/05 04:52:34;;;;;;;3.05;2.60;;;19.70;75.50;;;;;;4997959;28;20490;-68
2023/07/05 04:55:00;;;;;;;4.88;2.80;;;19.60;75.20;;;;;;4997446;28;20117;-68
2023/07/05 04:57:28;;;;;;;6.63;2.95;;;19.50;75.30;;;;;;4997426;28;20104;-68
2023/07/05 04:59:54;;;;;;;4.53;2.42;;;19.50;75.50;;;;;;4997846;28;20026;-69
2023/07/05 05:02:20;;;;;;;5.05;2.70;;;19.60;75.60;;;;;;4997894;28;20053;-69
2023/07/05 05:04:46;;;;;;;4.45;3.25;;;19.70;75.50;;;;;;4997949;28;20364;-69
2023/07/05 05:07:13;;;;;;;4.57;2.70;;;19.70;75.50;;;;;;4997774;28;20464;-69
2023/07/05 05:09:40;;;;;;;8.18;3.30;;;19.80;75.30;;;;;;4997661;28;20109;-68
2023/07/05 05:12:08;;;;;;;4.22;3.15;;;19.70;75.70;;;;;;4997549;28;20366;-68
2023/07/05 05:14:34;;;;;;;5.97;3.33;;;19.60;75.70;;;;;;4997600;28;20031;-69
2023/07/05 05:17:00;;;;;;;5.90;3.33;;;19.50;76.20;;;;;;4998032;28;20031;-68
2023/07/05 05:19:26;;;;;;;8.38;3.53;;;19.40;76.90;;;;;;4997746;28;20069;-68
2023/07/05 05:21:52;;;;;;;7.43;4.00;;;19.30;77.20;;;;;;4997466;28;20030;-68
2023/07/05 05:24:18;;;;;;;8.05;3.85;;;19.30;77.80;;;;;;4997358;28;20357;-67
2023/07/05 05:26:44;;;;;;;8.27;3.58;;;19.20;77.80;;;;;;4997374;28;20077;-68
2023/07/05 05:29:11;;;;;;;6.90;3.67;;;19.20;78.10;;;;;;4997308;28;20049;-68
2023/07/05 05:31:37;;;;;;;6.75;3.72;;;19.10;78.00;;;;;;4997211;28;20044;-69
2023/07/05 05:34:03;;;;;;;5.68;3.80;;;19.00;78.50;;;;;;4996927;28;20364;-67
2023/07/05 05:36:29;;;;;;;5.72;3.60;;;19.00;78.40;;;;;;4997628;28;20037;-68
2023/07/05 05:38:55;;;;;;;8.73;4.13;;;19.00;78.40;;;;;;4997117;28;20146;-68
2023/07/05 05:41:21;;;;;;;7.65;3.80;;;19.00;78.60;;;;;;4998103;28;20436;-68
2023/07/05 05:43:50;;;;;;;5.18;3.45;;;18.90;79.10;;;;;;4997390;28;20436;-68
2023/07/05 05:46:16;;;;;;;5.55;3.30;;;18.90;78.70;;;;;;4996961;28;20042;-68
2023/07/05 05:48:42;;;;;;;5.53;3.15;;;18.80;78.70;;;;;;4996877;28;20031;-68
2023/07/05 05:51:08;;;;;;;5.53;3.17;;;18.80;78.80;;;;;;4996018;28;20508;-67
2023/07/05 05:53:34;;;;;;;6.78;3.70;;;18.80;79.00;;;;;;4997186;28;20054;-67
2023/07/05 05:56:00;;;;;;;6.93;4.57;;;18.80;79.80;;;;;;4996776;28;20027;-68
2023/07/05 05:58:27;;;;;;;10.15;4.40;;;18.80;80.00;;;;;;4996729;28;20085;-72
2023/07/05 06:00:53;;;;;;;6.45;3.30;;;18.80;80.50;;;;;;4996679;28;20023;-68
2023/07/05 06:03:19;;;;;;;8.18;3.67;;;18.80;79.60;;;;;;4979421;28;20480;-73
2023/07/05 06:05:45;;;;;;;6.78;3.50;;;18.80;79.80;;;;;;4996607;28;20054;-70
2023/07/05 06:08:11;;;;;;;6.70;3.40;;;18.80;79.70;;;;;;4996826;28;20046;-69
2023/07/05 06:10:37;;;;;;;5.32;3.50;;;18.90;79.50;;;;;;4997001;28;20026;-70
2023/07/05 06:13:03;;;;;;;4.40;2.83;;;18.90;79.40;;;;;;4996373;28;20041;-70
2023/07/05 06:15:29;;;;;;;6.35;3.42;;;18.90;79.20;;;;;;4996384;28;20069;-69
2023/07/05 06:17:55;;;;;;;10.95;3.53;;;19.00;79.00;;;;;;4996931;28;20050;-67
2023/07/05 06:20:23;;;;;;;7.15;4.18;;;19.00;79.10;;;;;;4996618;28;20061;-68
2023/07/05 06:22:49;;;;;;;6.47;3.80;;;19.10;80.60;;;;;;4996243;28;20026;-68
2023/07/05 06:25:15;;;;;;;7.20;3.92;;;19.10;80.60;;;;;;4996744;28;20026;-68
2023/07/05 06:27:41;;;;;;;6.10;3.55;;;19.10;80.00;;;;;;4996233;28;20022;-67
2023/07/05 06:30:08;;;;;;;4.78;3.28;;;19.20;80.50;;;;;;4996723;28;20428;-68
2023/07/05 06:32:34;;;;;;;5.72;3.20;;;19.20;80.30;;;;;;4996604;28;20045;-68
2023/07/05 06:35:01;;;;;;;4.38;2.90;;;19.20;80.00;;;;;;4995921;28;20062;-69
2023/07/05 06:37:27;;;;;;;3.78;2.88;;;19.30;79.90;;;;;;4996619;28;20029;-68
2023/07/05 06:39:53;;;;;;;3.50;2.50;;;19.40;79.40;;;;;;4996335;28;20022;-68
2023/07/05 06:42:19;;;;;;;6.43;3.00;;;19.50;79.00;;;;;;4996292;28;20064;-68
2023/07/05 06:44:45;;;;;;;4.40;2.60;;;19.70;78.50;;;;;;4996450;28;20027;-68
2023/07/05 06:47:11;;;;;;;3.38;2.65;;;19.90;78.00;;;;;;4995998;28;20038;-69
2023/07/05 06:49:37;;;;;;;4.38;2.60;;;20.20;77.80;;;;;;4996451;28;20026;-68
2023/07/05 06:52:07;;;;;;;4.53;2.80;;;20.40;76.80;;;;;;4995587;28;20032;-68
2023/07/05 06:54:34;;;;;;;6.60;2.80;;;20.70;76.40;;;;;;4995709;28;20038;-68
2023/07/05 06:57:00;;;;;;;4.32;2.50;;;21.00;75.90;;;;;;4995866;28;20106;-67
2023/07/05 06:59:26;;;;;;;5.05;2.58;;;21.30;75.40;;;;;;4995843;28;20448;-68
2023/07/05 07:01:52;;;;;;;4.35;2.70;;;21.60;74.70;;;;;;4995797;28;20097;-68
2023/07/05 07:04:18;;;;;;;3.97;2.00;;;21.90;74.20;;;;;;4995693;28;20101;-69
2023/07/05 07:06:44;;;;;;;4.70;2.35;;;22.10;73.60;;;;;;4996183;28;20467;-68
2023/07/05 07:09:13;;;;;;;2.22;2.03;;;22.40;72.90;;;;;;4995668;28;20114;-69
2023/07/05 07:11:39;;;;;;;2.88;2.10;;;22.50;72.50;;;;;;4996125;28;20459;-68
2023/07/05 07:14:05;;;;;;;3.08;2.10;;;22.80;72.00;;;;;;4995411;28;20058;-68
2023/07/05 07:16:31;;;;;;;3.45;2.05;;;23.10;71.40;;;;;;4995880;28;20018;-69
2023/07/05 07:18:59;;;;;;;3.83;2.25;;;23.40;70.90;;;;;;4996472;28;20121;-68
2023/07/05 07:21:26;;;;;;;3.85;2.00;;;23.70;69.10;;;;;;4999849;28;20114;-68
2023/07/05 07:23:52;;;;;;;3.38;2.00;;;23.80;68.50;;;;;;4999745;28;20097;-69
2023/07/05 07:26:21;;;;;;;2.83;1.90;;;24.10;68.00;;;;;;4999842;28;20026;-68
2023/07/05 07:28:50;;;;;;;3.42;2.15;;;24.40;67.20;;;;;;4999735;28;20071;-68
2023/07/05 07:31:25;;;;;;;3.08;2.00;;;24.70;66.40;;;;;;4999980;28;20034;-69
2023/07/05 07:33:52;;;;;;;4.43;2.00;;;25.00;65.40;;;;;;4999244;28;20131;-68
2023/07/05 07:36:23;;;;;;;3.13;2.03;;;25.20;64.70;;;;;;4999694;28;20026;-68
2023/07/05 07:38:50;;;;;;;3.15;2.13;;;25.50;64.30;;;;;;4999885;28;20034;-68
2023/07/05 07:41:19;;;;;;;2.92;1.88;;;25.70;63.50;;;;;;5000041;28;20352;-68
2023/07/05 07:43:46;;;;;;;3.13;2.08;;;25.90;63.30;;;;;;4999008;28;20027;-68
2023/07/05 07:46:15;;;;;;;2.15;1.83;;;26.00;62.90;;;;;;4999521;28;20027;-67
2023/07/05 07:48:43;;;;;;;3.97;1.92;;;26.00;62.50;;;;;;4999816;28;20037;-67
2023/07/05 07:51:10;;;;;;;2.85;2.13;;;26.20;62.40;;;;;;4999713;28;20026;-68
2023/07/05 07:53:36;;;;;;;2.25;1.80;;;26.30;62.10;;;;;;4999066;28;20029;-67
2023/07/05 07:56:17;;;;;;;3.20;1.80;;;26.40;62.00;;;;;;4997910;28;20034;-68
2023/07/05 07:58:46;;;;;;;4.03;1.90;;;26.50;61.60;;;;;;4999145;28;20037;-67
2023/07/05 08:01:29;;;;;;;2.83;1.75;;;26.70;61.40;;;;;;4999290;28;20455;-67
2023/07/05 08:03:56;;;;;;;4.30;2.38;;;26.70;60.50;;;;;;4981541;28;20069;-67
2023/07/05 08:06:38;;;;;;;3.80;2.10;;;26.70;60.10;;;;;;4998680;28;20077;-68
2023/07/05 08:09:06;;;;;;;3.72;2.03;;;26.70;60.20;;;;;;4999232;28;20364;-68
2023/07/05 08:11:38;;;;;;;6.18;2.70;;;26.80;60.00;;;;;;4998592;28;20146;-68
2023/07/05 08:14:05;;;;;;;5.60;2.47;;;26.90;58.80;;;;;;4998351;28;20041;-67
2023/07/05 08:16:31;;;;;;;4.18;2.75;;;27.00;58.90;;;;;;4997515;28;20026;-67
2023/07/05 08:18:58;;;;;;;5.75;2.92;;;27.10;59.10;;;;;;4998446;28;20026;-68
2023/07/05 08:21:24;;;;;;;4.72;2.50;;;27.20;58.80;;;;;;4998397;28;20022;-67
2023/07/05 08:23:50;;;;;;;4.50;2.70;;;27.30;58.60;;;;;;4998511;28;20041;-68
2023/07/05 08:26:16;;;;;;;8.15;2.78;;;27.30;58.20;;;;;;4998795;28;20117;-68
2023/07/05 08:28:43;;;;;;;4.18;2.60;;;27.30;58.10;;;;;;4998245;28;20022;-67
2023/07/05 08:31:09;;;;;;;5.10;2.83;;;27.30;58.20;;;;;;4998095;28;20069;-67
2023/07/05 08:33:37;;;;;;;4.70;2.72;;;27.20;58.40;;;;;;4998510;28;20026;-67
2023/07/05 08:36:08;;;;;;;4.03;2.95;;;27.20;58.90;;;;;;4997052;28;20108;-67
2023/07/05 08:38:34;;;;;;;6.43;3.10;;;27.30;58.90;;;;;;4998396;28;20026;-68
2023/07/05 08:41:10;;;;;;;4.45;2.83;;;27.30;58.80;;;;;;4998586;28;20030;-68
2023/07/05 08:43:47;;;;;;;3.65;2.90;;;27.40;58.60;;;;;;4998182;28;20037;-68
2023/07/05 08:46:15;;;;;;;5.38;2.80;;;27.40;58.20;;;;;;4998485;28;20034;-67
2023/07/05 08:48:43;;;;;;;6.00;2.90;;;27.40;58.10;;;;;;4997895;28;20364;-67
2023/07/05 08:51:12;;;;;;;4.15;2.97;;;27.40;58.00;;;;;;4997866;28;20033;-68
2023/07/05 08:53:48;;;;;;;6.13;3.13;;;27.40;57.80;;;;;;4997654;28;20120;-67
2023/07/05 08:56:26;;;;;;;5.65;2.90;;;27.30;57.80;;;;;;4997813;28;20054;-68
2023/07/05 08:59:22;;;;;;;3.80;2.60;;;27.30;58.00;;;;;;4998269;28;20085;-68
2023/07/05 09:01:51;;;;;;;4.30;2.67;;;27.40;57.40;;;;;;4997969;28;20018;-68
2023/07/05 09:04:40;;;;;;;5.68;2.95;;;27.40;57.10;;;;;;4997700;28;20080;-68
2023/07/05 09:07:43;;;;;;;4.82;2.60;;;27.30;56.90;;;;;;4994714;28;20038;-68
2023/07/05 09:10:30;;;;;;;4.60;2.60;;;27.30;57.20;;;;;;4997525;28;20058;-68
2023/07/05 09:13:19;;;;;;;5.55;2.75;;;27.30;57.40;;;;;;4998063;28;20110;-69
2023/07/05 09:16:00;;;;;;;3.92;2.45;;;27.40;57.40;;;;;;4997449;28;20440;-68
2023/07/05 09:18:53;;;;;;;3.80;2.55;;;27.60;57.30;;;;;;4996411;28;20077;-68
2023/07/05 09:21:36;;;;;;;6.07;2.55;;;27.70;56.90;;;;;;4997908;28;20277;-68
2023/07/05 09:24:19;;;;;;;3.42;2.47;;;27.80;56.40;;;;;;4997760;28;20062;-68
2023/07/05 09:26:58;;;;;;;3.38;2.47;;;27.80;55.60;;;;;;4997795;28;20030;-68
2023/07/05 09:29:51;;;;;;;3.22;2.10;;;27.80;55.50;;;;;;4997432;28;20317;-68
2023/07/05 09:32:23;;;;;;;6.68;2.25;;;27.80;56.10;;;;;;4997041;28;20045;-68
2023/07/05 09:34:55;;;;;;;5.00;2.45;;;27.90;55.80;;;;;;4996876;28;20050;-68
2023/07/05 09:37:31;;;;;;;3.80;2.40;;;28.00;55.90;;;;;;4997299;28;20502;-68
2023/07/05 09:40:38;;;;;;;4.65;2.50;;;28.00;55.00;;;;;;4997530;28;20451;-68
2023/07/05 09:43:13;;;;;;;3.33;2.05;;;28.00;54.50;;;;;;4984701;28;20456;-68
2023/07/05 09:45:39;;;;;;;4.63;2.40;;;28.00;54.20;;;;;;4996867;28;20101;-68
2023/07/05 09:48:10;;;;;;;4.03;2.33;;;28.00;53.90;;;;;;4996937;28;20036;-68
2023/07/05 09:50:38;;;;;;;3.63;2.35;;;27.90;54.20;;;;;;4996883;28;20026;-68
2023/07/05 09:53:32;;;;;;;3.25;2.47;;;27.90;54.50;;;;;;4997065;28;20073;-69
2023/07/05 09:56:10;;;;;;;3.20;2.00;;;28.00;54.50;;;;;;4996798;28;20412;-68
2023/07/05 09:58:38;;;;;;;3.63;2.55;;;28.00;54.60;;;;;;4996965;28;20030;-68
2023/07/05 10:01:11;;;;;;;3.60;2.30;;;28.00;54.20;;;;;;4997261;28;20432;-69
2023/07/05 10:03:43;;;;;;;;;;;28.00;54.60;;;;;;4997277;28;20113;-68
2023/07/05 10:06:11;;;;;;;4.53;2.38;;;28.00;54.30;;;;;;4996877;28;19906;-68
2023/07/05 10:08:45;;;;;;;3.85;2.38;;;28.00;53.90;;;;;;4996584;28;20041;-68
2023/07/05 10:11:25;;;;;;;4.07;2.35;;;27.90;53.80;;;;;;4996570;28;20030;-68
2023/07/05 10:14:15;;;;;;;3.50;2.08;;;27.90;53.90;;;;;;4995365;28;20479;-68
2023/07/05 10:16:56;;;;;;;2.88;2.13;;;27.90;54.20;;;;;;4996425;28;20031;-68
2023/07/05 10:19:37;;;;;;;4.38;3.08;;;27.90;54.20;;;;;;4996893;28;20023;-69
2023/07/05 10:22:26;;;;;;;3.08;2.20;;;28.00;53.80;;;;;;4996687;28;20058;-68
2023/07/05 10:25:17;;;;;;;4.15;2.13;;;28.00;53.00;;;;;;4996624;28;20030;-68
2023/07/05 10:27:46;;;;;;;2.72;1.95;;;28.00;52.70;;;;;;4996498;28;20113;-68
2023/07/05 10:30:19;;;;;;;2.45;1.90;;;28.10;52.90;;;;;;4996197;28;20045;-69
2023/07/05 10:32:51;;;;;;;2.45;2.03;;;28.20;53.10;;;;;;4996457;28;20026;-68
2023/07/05 10:35:23;;;;;;;3.63;2.10;;;28.20;52.60;;;;;;4995955;28;20078;-68
2023/07/05 10:37:49;;;;;;;2.33;1.80;;;28.40;53.10;;;;;;4996678;28;20064;-68
2023/07/05 10:40:17;;;;;;;5.43;2.47;;;28.50;53.20;;;;;;4996092;28;20097;-68
2023/07/05 10:42:52;;;;;;;2.95;2.35;;;28.50;52.80;;;;;;4996311;28;20034;-68
2023/07/05 10:45:21;;;;;;;4.57;2.40;;;28.40;52.90;;;;;;4996556;28;20021;-69
2023/07/05 10:47:52;;;;;;;3.17;2.38;;;28.40;53.30;;;;;;4995990;28;20459;-69
2023/07/05 10:50:28;;;;;;;3.95;2.60;;;28.40;53.20;;;;;;4996282;28;20026;-68
2023/07/05 10:53:19;;;;;;;3.58;2.50;;;28.40;53.00;;;;;;4995701;28;20344;-69
2023/07/05 10:56:14;;;;;;;2.13;1.83;;;28.40;53.10;;;;;;4993175;28;20121;-68
2023/07/05 10:58:48;;;;;;;3.22;1.90;;;28.30;53.40;;;;;;4996413;28;20031;-68
2023/07/05 11:01:22;;;;;;;3.17;2.25;;;28.40;53.40;;;;;;4996379;28;20022;-68
2023/07/05 11:04:00;;;;;;;4.50;2.30;;;28.40;53.80;;;;;;4996200;28;20057;-69
2023/07/05 11:06:27;;;;;;;3.80;2.42;;;28.50;54.00;;;;;;4996101;28;20023;-68
2023/07/05 11:08:54;;;;;;;4.32;2.63;;;28.50;54.30;;;;;;4995684;28;20105;-68
2023/07/05 11:11:23;;;;;;;3.83;2.30;;;28.60;54.40;;;;;;4995739;28;20109;-68
2023/07/05 11:13:51;;;;;;;2.67;2.00;;;28.50;54.20;;;;;;4995460;28;20421;-68
2023/07/05 11:16:29;;;;;;;3.33;2.35;;;28.50;54.20;;;;;;4995949;28;20038;-68
2023/07/05 11:19:09;;;;;;;3.40;2.42;;;28.50;54.10;;;;;;4995673;28;20030;-68
2023/07/05 11:21:40;;;;;;;4.13;2.65;;;28.50;54.00;;;;;;4995970;28;20124;-69
2023/07/05 11:24:08;;;;;;;3.15;2.30;;;28.50;54.20;;;;;;4995610;28;20038;-68
2023/07/05 11:26:36;;;;;;;2.85;2.15;;;28.50;54.50;;;;;;4995872;28;20455;-69
2023/07/05 11:29:28;;;;;;;2.65;2.05;;;28.60;54.50;;;;;;4994902;28;20038;-68
2023/07/05 11:31:54;;;;;;;4.95;2.60;;;28.70;54.50;;;;;;4995553;28;20050;-69
2023/07/05 11:34:25;;;;;;;3.17;2.28;;;28.80;54.70;;;;;;4995274;28;20038;-68
2023/07/05 11:37:14;;;;;;;4.40;2.53;;;28.90;54.70;;;;;;4995781;28;20030;-68
2023/07/05 11:39:48;;;;;;;3.70;2.47;;;28.90;54.30;;;;;;4985812;28;20030;-68
2023/07/05 11:44:45;;;;;;;3.92;2.17;;;28.90;54.70;;;;;;4995383;28;20023;-68
2023/07/05 11:47:31;;;;;;;3.53;2.17;;;28.90;54.90;;;;;;4995627;28;20035;-69
2023/07/05 11:50:07;;;;;;;4.93;2.67;;;29.00;54.60;;;;;;4991664;28;20471;-69
2023/07/05 11:52:38;;;;;;;5.45;2.70;;;29.00;54.30;;;;;;4995966;28;20026;-69
2023/07/05 11:55:18;;;;;;;4.97;2.85;;;28.90;54.50;;;;;;4995462;28;20032;-68
2023/07/05 11:57:44;;;;;;;3.45;2.38;;;28.90;54.90;;;;;;4995639;28;20034;-68
2023/07/05 12:00:17;;;;;;;4.55;2.47;;;28.80;54.80;;;;;;4995351;28;20333;-68
2023/07/05 12:03:01;;;;;;;4.78;2.75;;;28.80;54.90;;;;;;4996098;28;20046;-69
2023/07/05 12:05:31;;;;;;;6.25;2.75;;;28.70;54.90;;;;;;4997326;28;20038;-68
2023/07/05 12:08:16;;;;;;;4.43;2.63;;;28.70;54.90;;;;;;4999128;28;20080;-68
2023/07/05 12:10:54;;;;;;;3.08;2.45;;;28.70;55.00;;;;;;4999144;28;20049;-68
2023/07/05 12:13:25;;;;;;;4.32;2.80;;;28.80;55.20;;;;;;4999015;28;20042;-68
2023/07/05 12:15:53;;;;;;;3.78;2.78;;;28.90;55.20;;;;;;4998748;28;20065;-68
2023/07/05 12:18:20;;;;;;;4.18;2.90;;;28.90;55.30;;;;;;4998713;28;20459;-68
2023/07/05 12:20:54;;;;;;;5.22;2.80;;;28.90;55.20;;;;;;4998925;28;20097;-68
2023/07/05 12:23:23;;;;;;;5.97;2.88;;;28.90;55.20;;;;;;4998622;28;20030;-69
2023/07/05 12:26:02;;;;;;;3.45;2.72;;;28.90;55.20;;;;;;4998487;28;20466;-68
2023/07/05 12:28:30;;;;;;;3.90;2.80;;;28.90;55.30;;;;;;4998507;28;20109;-69
2023/07/05 12:31:10;;;;;;;4.78;2.88;;;29.00;55.30;;;;;;4998517;28;20034;-69
2023/07/05 12:33:37;;;;;;;4.97;2.75;;;29.00;54.90;;;;;;4998274;28;20093;-68
2023/07/05 12:36:22;;;;;;;2.78;2.40;;;29.00;54.10;;;;;;4998203;28;20050;-69
2023/07/05 12:39:05;;;;;;;3.53;2.50;;;29.10;53.40;;;;;;4998887;28;20435;-69
2023/07/05 12:41:31;;;;;;;3.50;2.45;;;29.10;53.20;;;;;;4998281;28;20038;-68
2023/07/05 12:44:00;;;;;;;3.72;2.50;;;29.20;53.10;;;;;;4998172;28;20463;-67
2023/07/05 12:46:28;;;;;;;3.05;2.00;;;29.30;53.00;;;;;;4998224;28;20062;-69
2023/07/05 12:48:55;;;;;;;2.92;2.35;;;29.40;53.10;;;;;;4998392;28;20352;-67
2023/07/05 12:51:23;;;;;;;3.03;2.40;;;29.50;52.30;;;;;;4997750;28;20548;-67
2023/07/05 12:53:52;;;;;;;3.72;2.40;;;29.60;51.60;;;;;;4997928;28;20067;-70
2023/07/05 12:56:31;;;;;;;4.25;2.20;;;29.50;50.80;;;;;;4997975;28;20360;-69
2023/07/05 12:59:03;;;;;;;5.43;2.40;;;29.40;49.60;;;;;;4997972;28;20383;-69
2023/07/05 13:01:34;;;;;;;3.55;2.50;;;29.30;49.90;;;;;;4998159;28;20352;-69
2023/07/05 13:04:01;;;;;;;3.53;2.05;;;29.30;50.00;;;;;;4998091;28;20113;-69
2023/07/05 13:06:28;;;;;;;2.20;2.00;;;29.40;49.90;;;;;;4998353;28;20049;-69
2023/07/05 13:08:58;;;;;;;2.47;2.00;;;29.30;49.20;;;;;;4997890;28;20027;-69
2023/07/05 13:11:26;;;;;;;3.92;2.20;;;29.30;48.70;;;;;;4997932;28;20117;-68